Weather at Dortheys Hiyo Eluay International Airport

Public forecast

Using degrees Celsius for public forecast. Weather courtesy of forecast.io.

Current aviation weather report (METAR) for Dortheys Hiyo Eluay International Airport

2024/05/18 13:30 (retrieved 38 minutes ago)

WAJJ 181330Z 00000KT 9999 FEW013 26/26 Q1007

Closest aviation forecast (TAF) to Dortheys Hiyo Eluay International Airport

Closest forecast is Frans Kaisiepo Airport, 277.6 nm (514.1 km) WNW.

2024/05/18 12:08 (retrieved 2 hours ago)

TAF WABB 181100Z 1812/1918 31005KT 9999 SCT016 PROB40 TEMPO 1816/1820 RA